Time;durP1;ratioP1;P1;durP2;ratioP2;P2;SDS_P1;SDS_P2;PMS_P1;PMS_P2;Temp;Humidity;BMP_temperature;BMP_pressure;BME280_temperature;BME280_humidity;BME280_pressure;Samples;Min_cycle;Max_cycle;Signal;HPM_P1;HPM_P2
2021/04/29 00:02:01;;;;;;;54.37;22.63;;;;;;;2.76;56.09;98097.77;2265263;78;21090;-79
2021/04/29 00:05:03;;;;;;;55.60;21.80;;;;;;;2.70;55.99;98091.56;2265377;78;21111;-79
2021/04/29 00:08:04;;;;;;;46.23;21.87;;;;;;;2.73;56.15;98091.66;2265429;79;21142;-79
2021/04/29 00:11:05;;;;;;;53.90;24.03;;;;;;;2.73;56.27;98085.21;2265422;79;21114;-79
2021/04/29 00:14:06;;;;;;;67.50;27.80;;;;;;;2.73;56.49;98083.51;2265461;78;21118;-79
2021/04/29 00:17:07;;;;;;;54.37;23.27;;;;;;;2.71;56.89;98088.16;2265401;78;21106;-79
2021/04/29 00:20:08;;;;;;;56.83;22.97;;;;;;;2.70;56.91;98092.84;2264891;78;21197;-79
2021/04/29 00:23:09;;;;;;;46.67;18.23;;;;;;;2.69;57.04;98089.39;2265111;78;21102;-79
2021/04/29 00:26:10;;;;;;;79.63;20.60;;;;;;;2.65;57.03;98093.13;2265745;78;21071;-79
2021/04/29 00:29:11;;;;;;;63.10;21.47;;;;;;;3.99;57.86;98085.33;2264840;78;21142;-79
2021/04/29 00:32:13;;;;;;;41.40;17.23;;;;;;;3.92;56.00;98088.59;2265234;79;21229;-79
2021/04/29 00:35:14;;;;;;;68.30;21.17;;;;;;;3.70;55.92;98084.16;2264870;78;21105;-79
2021/04/29 00:38:16;;;;;;;75.23;21.37;;;;;;;3.57;56.16;98089.82;2264798;78;21213;-79
2021/04/29 00:41:17;;;;;;;50.30;19.90;;;;;;;3.43;56.33;98088.53;2264777;78;21122;-78
2021/04/29 00:44:18;;;;;;;52.97;19.03;;;;;;;3.28;56.29;98088.11;2264681;79;21110;-79
2021/04/29 00:47:19;;;;;;;56.00;20.67;;;;;;;3.14;56.91;98089.88;2269923;78;21240;-80
2021/04/29 00:50:20;;;;;;;40.70;18.27;;;;;;;3.03;57.48;98092.98;2288341;77;21110;-78
2021/04/29 00:53:21;;;;;;;40.37;18.93;;;;;;;3.00;57.60;98093.77;2261220;78;21388;-78
2021/04/29 00:56:23;;;;;;;48.90;19.60;;;;;;;2.88;57.69;98093.41;2261188;78;21097;-78
2021/04/29 00:59:24;;;;;;;43.17;19.97;;;;;;;2.84;57.94;98098.00;2261086;78;21217;-79
2021/04/29 01:02:25;;;;;;;45.97;20.97;;;;;;;2.80;58.08;98097.04;2261143;78;21102;-78
2021/04/29 01:05:27;;;;;;;44.23;21.40;;;;;;;2.77;58.52;98092.20;2261386;79;21527;-78
2021/04/29 01:08:28;;;;;;;41.73;20.63;;;;;;;2.76;58.38;98100.77;2261745;79;21146;-78
2021/04/29 01:11:29;;;;;;;37.73;20.40;;;;;;;2.70;58.36;98106.61;2261699;78;21217;-78
2021/04/29 01:14:30;;;;;;;48.90;22.73;;;;;;;2.62;58.58;98107.20;2261832;78;21131;-79
2021/04/29 01:17:31;;;;;;;47.07;22.50;;;;;;;2.48;59.17;98102.87;2261907;78;21141;-80
2021/04/29 01:20:32;;;;;;;43.87;22.27;;;;;;;2.38;59.59;98104.28;2262235;78;21093;-79
2021/04/29 01:23:33;;;;;;;47.43;23.17;;;;;;;2.34;59.91;98098.98;2262076;78;21106;-80
2021/04/29 01:26:36;;;;;;;44.47;20.73;;;;;;;2.29;59.98;98101.83;2261624;78;21102;-79
2021/04/29 01:29:37;;;;;;;41.13;21.17;;;;;;;2.24;59.95;98106.41;2261796;78;21388;-78
2021/04/29 01:32:39;;;;;;;38.63;21.17;;;;;;;2.21;60.43;98096.02;2261740;78;21388;-79
2021/04/29 01:35:40;;;;;;;48.67;24.10;;;;;;;2.13;60.31;98102.61;2261412;78;21499;-79
2021/04/29 01:38:42;;;;;;;39.30;20.87;;;;;;;2.18;60.64;98101.47;2261476;78;21106;-79
2021/04/29 01:41:43;;;;;;;42.03;20.43;;;;;;;2.14;60.63;98103.48;2261223;78;21102;-79
2021/04/29 01:44:44;;;;;;;33.60;18.77;;;;;;;2.17;61.09;98104.88;2261645;78;21111;-79
2021/04/29 01:47:45;;;;;;;37.30;19.13;;;;;;;2.13;61.17;98099.16;2260620;78;21131;-78
2021/04/29 01:50:46;;;;;;;130.40;25.13;;;;;;;2.13;61.25;98100.45;2261283;78;21222;-79
2021/04/29 01:53:47;;;;;;;37.93;17.70;;;;;;;2.04;61.28;98098.86;2261162;79;21122;-80
2021/04/29 01:56:48;;;;;;;32.53;18.10;;;;;;;2.12;63.60;98092.27;2261627;78;21102;-79
2021/04/29 01:59:49;;;;;;;36.17;18.50;;;;;;;2.40;61.28;98085.88;2261374;78;21225;-78
2021/04/29 02:02:50;;;;;;;42.57;21.10;;;;;;;2.30;60.88;98085.13;2261384;78;21075;-79
2021/04/29 02:05:51;;;;;;;37.00;19.33;;;;;;;2.20;61.05;98086.53;2261317;78;21070;-80
2021/04/29 02:08:52;;;;;;;39.63;18.90;;;;;;;2.11;61.23;98091.80;2261397;78;21134;-78
2021/04/29 02:11:53;;;;;;;51.73;19.77;;;;;;;2.07;61.45;98086.97;2261057;78;21111;-77
2021/04/29 02:14:54;;;;;;;30.50;16.83;;;;;;;2.09;61.87;98079.30;2261310;78;21137;-80
2021/04/29 02:17:56;;;;;;;69.27;36.67;;;;;;;2.05;61.51;98082.59;2261103;78;21204;-79
2021/04/29 02:20:57;;;;;;;40.93;21.90;;;;;;;2.06;61.83;98081.35;2261427;78;21122;-79
2021/04/29 02:23:58;;;;;;;88.77;21.23;;;;;;;2.01;61.82;98082.03;2261518;78;21102;-78
2021/04/29 02:26:59;;;;;;;35.87;17.67;;;;;;;2.01;62.02;98075.59;2261576;78;21515;-79
2021/04/29 02:30:00;;;;;;;53.43;19.13;;;;;;;1.94;62.20;98083.52;2261633;78;21145;-79
2021/04/29 02:33:01;;;;;;;34.27;16.53;;;;;;;1.93;62.21;98075.75;2262135;78;21071;-79
2021/04/29 02:36:02;;;;;;;30.40;15.77;;;;;;;1.90;62.72;98076.11;2261750;78;21117;-80
2021/04/29 02:39:03;;;;;;;34.73;16.10;;;;;;;1.92;62.78;98077.45;2261845;78;21110;-80
2021/04/29 02:42:04;;;;;;;24.77;14.43;;;;;;;1.91;62.82;98082.13;2261414;78;21361;-79
2021/04/29 02:45:05;;;;;;;74.63;19.70;;;;;;;1.88;62.96;98086.77;2261105;78;21122;-79
2021/04/29 02:48:07;;;;;;;76.10;19.30;;;;;;;1.95;63.55;98076.27;2263431;78;21244;-79
2021/04/29 02:51:08;;;;;;;111.57;20.13;;;;;;;2.11;63.79;98077.64;2299567;77;21102;-80
2021/04/29 02:54:09;;;;;;;28.50;14.30;;;;;;;2.18;63.67;98080.87;2267175;77;21090;-79
2021/04/29 02:57:10;;;;;;;30.53;16.90;;;;;;;2.15;63.65;98075.63;2264597;78;21213;-79
2021/04/29 03:00:13;;;;;;;48.17;17.13;;;;;;;2.15;64.69;98084.64;2264805;78;21102;-80
2021/04/29 03:03:14;;;;;;;34.70;16.70;;;;;;;2.31;64.35;98081.73;2264498;78;21233;-80
2021/04/29 03:06:18;;;;;;;34.70;16.90;;;;;;;2.39;64.93;98075.13;2265324;79;21071;-79
2021/04/29 03:09:19;;;;;;;26.10;15.30;;;;;;;2.56;65.38;98077.81;2264833;78;21468;-79
2021/04/29 03:12:20;;;;;;;31.67;19.63;;;;;;;2.65;64.80;98086.68;2264886;79;21101;-79
2021/04/29 03:15:21;;;;;;;86.67;50.63;;;;;;;2.69;64.81;98085.95;2264556;78;21240;-79
2021/04/29 03:18:22;;;;;;;33.67;19.87;;;;;;;2.74;65.47;98086.96;2264714;78;21070;-80
2021/04/29 03:21:23;;;;;;;29.60;18.50;;;;;;;2.88;65.57;98086.95;2264945;78;21376;-79
2021/04/29 03:24:24;;;;;;;31.00;18.03;;;;;;;3.01;65.86;98085.20;2264864;78;21094;-79
2021/04/29 03:27:25;;;;;;;27.10;16.83;;;;;;;3.12;65.52;98085.09;2264309;78;21531;-79
2021/04/29 03:30:26;;;;;;;30.80;18.03;;;;;;;3.16;65.54;98077.91;2264798;78;21125;-79
2021/04/29 03:33:27;;;;;;;222.07;33.43;;;;;;;3.30;65.61;98078.70;2264458;78;21102;-79
2021/04/29 03:36:28;;;;;;;74.23;34.77;;;;;;;3.41;65.35;98076.02;2265170;78;21110;-79
2021/04/29 03:39:29;;;;;;;28.47;18.57;;;;;;;3.53;65.34;98085.83;2265162;79;21087;-78
2021/04/29 03:42:30;;;;;;;27.20;18.07;;;;;;;3.67;65.27;98080.62;2265301;79;21074;-82
2021/04/29 03:45:31;;;;;;;36.80;18.77;;;;;;;3.80;64.99;98077.52;2264828;78;21416;-78
2021/04/29 03:48:32;;;;;;;55.07;19.53;;;;;;;3.93;65.04;98074.84;2265538;78;21264;-82
2021/04/29 03:51:33;;;;;;;52.10;19.63;;;;;;;3.99;64.53;98077.58;2265778;78;21102;-79
2021/04/29 03:54:34;;;;;;;38.83;18.30;;;;;;;4.02;64.58;98074.66;2260910;78;21067;-81
2021/04/29 03:57:36;;;;;;;33.03;17.97;;;;;;;4.14;64.46;98072.37;2260705;79;21103;-80
2021/04/29 04:00:37;;;;;;;28.73;17.87;;;;;;;4.24;64.18;98067.02;2260315;78;21103;-80
2021/04/29 04:03:38;;;;;;;32.20;18.30;;;;;;;4.30;64.06;98063.28;2260730;78;21090;-81
2021/04/29 04:06:39;;;;;;;30.03;16.97;;;;;;;4.37;63.94;98065.22;2260620;78;21205;-81
2021/04/29 04:09:40;;;;;;;28.20;17.77;;;;;;;4.45;63.90;98066.69;2260681;78;21405;-80
2021/04/29 04:12:41;;;;;;;49.87;31.53;;;;;;;4.52;63.77;98062.53;2260703;78;21106;-79
2021/04/29 04:15:42;;;;;;;55.30;31.80;;;;;;;4.65;63.71;98060.26;2261092;78;21253;-79
2021/04/29 04:18:44;;;;;;;31.73;18.53;;;;;;;4.79;63.67;98067.03;2260535;78;21110;-80
2021/04/29 04:21:45;;;;;;;103.33;21.87;;;;;;;4.90;63.59;98061.67;2260444;78;21118;-80
2021/04/29 04:24:46;;;;;;;34.93;18.50;;;;;;;5.02;63.54;98059.77;2260948;78;21099;-80
2021/04/29 04:27:47;;;;;;;26.87;18.30;;;;;;;5.21;63.46;98055.88;2260434;78;21142;-80
2021/04/29 04:30:51;;;;;;;37.00;18.63;;;;;;;5.44;63.19;98054.61;2260685;78;21129;-79
2021/04/29 04:33:52;;;;;;;27.87;18.40;;;;;;;5.75;63.02;98053.47;2261116;79;21086;-80
2021/04/29 04:36:54;;;;;;;179.37;26.30;;;;;;;6.15;62.48;98056.39;2260953;78;21126;-82
2021/04/29 04:39:59;;;;;;;34.30;17.77;;;;;;;6.60;62.05;98059.25;2261178;79;21517;-80
2021/04/29 04:43:00;;;;;;;25.80;16.47;;;;;;;7.01;61.33;98046.47;2261077;78;21079;-80
2021/04/29 04:46:01;;;;;;;29.43;17.63;;;;;;;7.42;60.48;98050.00;2261150;78;21126;-80
2021/04/29 04:49:02;;;;;;;31.23;19.07;;;;;;;7.79;59.65;98055.59;2266957;78;21142;-80
2021/04/29 04:52:03;;;;;;;45.07;25.50;;;;;;;8.05;58.75;98055.88;2272227;77;21480;-80
2021/04/29 04:55:05;;;;;;;30.93;19.17;;;;;;;8.10;57.95;98052.89;2261495;78;21107;-81
2021/04/29 04:58:06;;;;;;;25.40;17.13;;;;;;;8.10;57.95;98052.89;2261494;78;21067;-80
2021/04/29 05:01:07;;;;;;;24.13;16.63;;;;;;;8.19;57.68;98059.47;2261275;78;21240;-80
2021/04/29 05:04:08;;;;;;;31.23;17.10;;;;;;;8.25;57.24;98051.72;2261184;78;21098;-77
2021/04/29 05:07:10;;;;;;;23.70;15.57;;;;;;;8.25;57.24;98051.72;2261384;78;21229;-78
2021/04/29 05:10:13;;;;;;;26.77;16.47;;;;;;;8.29;57.07;98056.09;2261400;78;21071;-80
2021/04/29 05:13:14;;;;;;;27.77;16.77;;;;;;;8.28;57.14;98046.11;2261720;78;21423;-79
2021/04/29 05:16:15;;;;;;;24.27;16.70;;;;;;;8.36;56.81;98042.73;2261503;78;21165;-79
2021/04/29 05:19:18;;;;;;;27.90;16.60;;;;;;;8.42;56.53;98047.55;2260274;78;21117;-78
2021/04/29 05:22:19;;;;;;;26.27;17.10;;;;;;;8.52;56.45;98047.19;2260485;78;21103;-80
2021/04/29 05:25:22;;;;;;;31.43;16.67;;;;;;;8.69;56.28;98043.44;2260345;78;21399;-79
2021/04/29 05:28:23;;;;;;;28.23;16.33;;;;;;;8.95;55.34;98035.35;2260245;78;21157;-79
2021/04/29 05:31:24;;;;;;;30.53;17.40;;;;;;;9.18;55.29;98043.27;2260459;78;21098;-78
2021/04/29 05:34:25;;;;;;;23.07;15.47;;;;;;;9.50;54.80;98035.59;2260418;78;21095;-79
2021/04/29 05:37:27;;;;;;;26.80;15.97;;;;;;;9.77;54.07;98046.11;2260197;78;21142;-78
2021/04/29 05:40:28;;;;;;;24.67;16.33;;;;;;;10.16;53.54;98040.52;2260707;78;21209;-82
2021/04/29 05:43:30;;;;;;;40.37;16.43;;;;;;;10.36;52.68;98042.73;2261258;78;21118;-77
2021/04/29 05:46:31;;;;;;;24.93;15.87;;;;;;;10.57;52.40;98045.80;2260595;78;21130;-78
2021/04/29 05:49:32;;;;;;;21.33;14.63;;;;;;;10.86;51.53;98032.70;2257873;78;21146;-78
2021/04/29 05:52:33;;;;;;;23.93;15.40;;;;;;;11.12;51.24;98034.80;2254356;78;21067;-78
2021/04/29 05:55:34;;;;;;;62.97;17.20;;;;;;;11.63;50.18;98032.87;2259774;78;21083;-78
2021/04/29 05:58:35;;;;;;;23.03;15.33;;;;;;;11.84;49.27;98033.66;2259770;78;21099;-78
2021/04/29 06:01:36;;;;;;;30.33;18.20;;;;;;;12.04;48.91;98037.88;2260108;78;21106;-78
2021/04/29 06:04:38;;;;;;;21.70;15.03;;;;;;;12.49;48.55;98033.20;2259825;78;21091;-78
2021/04/29 06:07:39;;;;;;;25.97;16.37;;;;;;;12.81;47.16;98024.17;2260085;78;21269;-78
2021/04/29 06:10:41;;;;;;;40.75;16.15;;;;;;;12.93;46.69;98015.75;2260202;78;21062;-77
2021/04/29 06:13:44;;;;;;;32.67;15.13;;;;;;;12.97;46.12;98016.14;2259905;79;21255;-78
2021/04/29 06:16:45;;;;;;;23.65;15.70;;;;;;;12.97;45.61;98020.06;2259690;78;21131;-79
2021/04/29 06:19:47;;;;;;;51.63;17.60;;;;;;;12.99;45.73;98017.43;2259796;78;21067;-78
2021/04/29 06:22:48;;;;;;;19.17;14.38;;;;;;;13.15;45.75;98016.85;2259236;78;21105;-79
2021/04/29 06:25:49;;;;;;;16.02;13.08;;;;;;;13.39;44.29;98012.66;2259572;78;21372;-80
2021/04/29 06:28:50;;;;;;;22.40;14.95;;;;;;;13.43;44.17;98010.42;2259479;78;21134;-80
2021/04/29 06:31:51;;;;;;;35.40;14.28;;;;;;;13.48;44.20;98003.36;2260301;78;21107;-79
2021/04/29 06:34:52;;;;;;;19.87;13.62;;;;;;;13.69;44.26;98005.70;2259794;78;21095;-78
2021/04/29 06:37:53;;;;;;;19.73;13.78;;;;;;;14.01;43.95;98009.64;2259657;78;21106;-78
2021/04/29 06:40:54;;;;;;;20.10;12.93;;;;;;;14.12;43.53;98008.16;2259574;78;21070;-79
2021/04/29 06:43:55;;;;;;;133.97;20.65;;;;;;;14.13;43.30;98013.39;2259545;78;21409;-81
2021/04/29 06:46:56;;;;;;;31.62;15.35;;;;;;;14.07;43.37;98008.23;2259789;78;21424;-78
2021/04/29 06:49:57;;;;;;;21.40;13.65;;;;;;;14.06;43.32;98010.88;2268691;78;21126;-79
2021/04/29 06:52:58;;;;;;;18.20;13.28;;;;;;;14.17;43.53;98015.08;2262968;78;21115;-78
2021/04/29 06:55:59;;;;;;;20.25;14.05;;;;;;;14.26;43.11;98012.30;2260727;78;21086;-79
2021/04/29 06:59:00;;;;;;;56.60;18.42;;;;;;;14.12;43.71;98014.28;2260584;78;21074;-77
2021/04/29 07:02:02;;;;;;;23.00;17.25;;;;;;;14.13;44.09;98012.52;2260505;78;21420;-79
2021/04/29 07:05:03;;;;;;;20.35;14.80;;;;;;;14.15;44.35;98012.05;2260561;78;21195;-79
2021/04/29 07:08:04;;;;;;;24.95;16.48;;;;;;;14.17;44.40;98011.13;2260766;79;21150;-78
2021/04/29 07:11:05;;;;;;;20.60;16.17;;;;;;;14.15;44.58;98010.73;2260908;78;21236;-78
2021/04/29 07:14:06;;;;;;;88.25;27.52;;;;;;;14.13;44.62;98012.52;2261273;79;21098;-78
2021/04/29 07:17:08;;;;;;;80.07;26.25;;;;;;;14.55;47.60;98013.16;2261296;78;21146;-80
2021/04/29 07:20:09;;;;;;;114.28;34.18;;;;;;;15.57;46.42;98016.92;2261509;78;21483;-78
2021/04/29 07:23:10;;;;;;;56.08;31.40;;;;;;;16.11;43.90;98008.76;2261151;78;21075;-78
2021/04/29 07:26:11;;;;;;;35.15;23.75;;;;;;;16.35;43.85;98012.12;2260886;78;21106;-79
2021/04/29 07:29:12;;;;;;;65.37;23.70;;;;;;;16.96;43.36;98013.25;2261121;78;21142;-80
2021/04/29 07:32:13;;;;;;;50.83;26.02;;;;;;;17.23;41.27;98005.48;2260995;78;21164;-79
2021/04/29 07:35:15;;;;;;;43.65;19.55;;;;;;;17.24;40.64;98004.58;2261373;78;21090;-79
2021/04/29 07:38:16;;;;;;;20.60;13.75;;;;;;;17.44;39.79;98000.95;2261263;78;21110;-80
2021/04/29 07:41:19;;;;;;;22.30;14.68;;;;;;;17.86;39.07;97997.97;2260558;78;21095;-79
2021/04/29 07:44:20;;;;;;;22.22;13.10;;;;;;;18.09;39.26;97998.12;2260594;78;21231;-78
2021/04/29 07:47:21;;;;;;;18.90;13.70;;;;;;;18.52;38.86;97998.08;2260789;78;21110;-80
2021/04/29 07:50:23;;;;;;;17.45;12.98;;;;;;;18.64;37.99;97988.45;2262365;79;21287;-78
2021/04/29 07:53:24;;;;;;;22.22;14.25;;;;;;;18.36;37.91;97991.98;2263830;78;21063;-80
2021/04/29 07:56:25;;;;;;;17.80;12.63;;;;;;;18.53;38.81;97989.23;2251547;78;21251;-79
2021/04/29 07:59:27;;;;;;;17.30;12.47;;;;;;;18.69;38.19;97992.66;2271753;78;21256;-79
2021/04/29 08:02:28;;;;;;;21.68;12.40;;;;;;;18.94;38.06;97990.02;2270541;78;21098;-80
2021/04/29 08:05:29;;;;;;;20.27;12.33;;;;;;;19.52;37.77;97991.05;2272945;78;21106;-79
2021/04/29 08:08:31;;;;;;;14.28;11.45;;;;;;;19.91;36.64;97990.88;2274280;77;21146;-82
2021/04/29 08:11:34;;;;;;;13.70;12.00;;;;;;;19.76;33.91;97984.84;2294409;77;21090;-82
2021/04/29 08:14:35;;;;;;;27.22;15.70;;;;;;;19.31;33.87;97989.59;2294180;77;21083;-80
2021/04/29 08:17:36;;;;;;;15.95;11.10;;;;;;;19.34;34.43;97982.00;2274512;77;21118;-82
2021/04/29 08:20:37;;;;;;;16.07;10.93;;;;;;;19.32;32.73;97979.88;2269170;77;21121;-81
2021/04/29 08:23:38;;;;;;;17.23;10.25;;;;;;;19.44;32.62;97979.42;2281874;78;21213;-79
2021/04/29 08:26:40;;;;;;;12.10;10.23;;;;;;;19.39;32.05;97976.08;2285683;77;21101;-79
2021/04/29 08:29:41;;;;;;;11.95;9.33;;;;;;;19.63;32.90;97969.03;2265454;78;21150;-81
2021/04/29 08:32:42;;;;;;;10.65;9.33;;;;;;;19.78;32.27;97971.55;2263866;78;21225;-81
2021/04/29 08:35:43;;;;;;;15.25;9.00;;;;;;;19.84;31.30;97967.34;2293285;78;21086;-80
2021/04/29 08:38:44;;;;;;;12.05;9.15;;;;;;;19.92;31.28;97970.08;2286335;77;21125;-81
2021/04/29 08:41:45;;;;;;;22.10;9.43;;;;;;;19.80;30.83;97966.59;2263882;78;21098;-81
2021/04/29 08:44:46;;;;;;;15.08;8.58;;;;;;;19.95;31.90;97966.48;2294326;78;21111;-80
2021/04/29 08:47:47;;;;;;;18.87;8.75;;;;;;;20.34;31.04;97961.36;2274379;77;21412;-82
2021/04/29 08:50:48;;;;;;;16.95;9.10;;;;;;;20.26;30.84;97952.86;2298392;77;21157;-82
2021/04/29 08:53:49;;;;;;;75.97;12.07;;;;;;;20.10;30.90;97955.73;2278105;77;21090;-80
2021/04/29 08:56:50;;;;;;;22.58;9.13;;;;;;;20.15;31.43;97951.97;2264961;78;21142;-81
2021/04/29 08:59:52;;;;;;;26.65;9.25;;;;;;;20.33;30.61;97947.25;2264753;78;21090;-84
2021/04/29 09:02:53;;;;;;;13.72;9.25;;;;;;;20.02;30.86;97935.72;2265023;78;21467;-81
2021/04/29 09:05:54;;;;;;;16.02;9.25;;;;;;;19.99;30.83;97944.25;2264876;78;21349;-82
2021/04/29 09:08:55;;;;;;;14.38;8.85;;;;;;;20.22;31.01;97934.04;2264938;78;21122;-82
2021/04/29 09:11:56;;;;;;;12.63;7.53;;;;;;;20.47;30.36;97933.45;2264756;78;21408;-80
2021/04/29 09:14:57;;;;;;;23.22;7.70;;;;;;;20.57;29.22;97928.16;2264857;79;21113;-80
2021/04/29 09:17:58;;;;;;;20.80;8.60;;;;;;;20.84;28.91;97920.82;2265096;78;21352;-80
2021/04/29 09:21:01;;;;;;;7.70;6.55;;;;;;;21.03;28.19;97920.00;2264942;78;21059;-80
2021/04/29 09:24:05;;;;;;;23.05;7.75;;;;;;;20.95;28.01;97915.04;2265009;79;21384;-81
2021/04/29 09:27:05;;;;;;;11.53;7.10;;;;;;;20.83;27.42;97913.79;2265225;78;21440;-80
2021/04/29 09:30:06;;;;;;;23.30;7.53;;;;;;;20.95;28.23;97916.37;2264571;78;21098;-79
2021/04/29 09:33:08;;;;;;;26.02;8.68;;;;;;;21.07;27.58;97910.98;2264820;78;21110;-80
2021/04/29 09:36:09;;;;;;;14.55;8.38;;;;;;;21.07;28.87;97909.65;2264538;78;21121;-79
2021/04/29 09:39:12;;;;;;;13.32;8.03;;;;;;;21.17;28.32;97900.34;2264980;78;21114;-80
2021/04/29 09:42:13;;;;;;;12.75;8.78;;;;;;;21.19;28.52;97895.82;2264789;78;21133;-82
2021/04/29 09:45:14;;;;;;;30.48;8.50;;;;;;;21.11;28.58;97895.31;2264573;78;21392;-80
2021/04/29 09:48:21;;;;;;;24.00;8.55;;;;;;;21.33;28.89;97881.95;2265073;78;21146;-80
2021/04/29 09:51:22;;;;;;;26.75;7.33;;;;;;;21.37;29.09;97880.88;2259266;78;21114;-78
2021/04/29 09:57:42;;;;;;;13.40;5.40;;;;;;;21.39;27.35;97879.87;2261442;78;21510;-80
2021/04/29 10:00:44;;;;;;;5.55;5.03;;;;;;;21.34;25.99;97869.93;2261641;78;21106;-80
2021/04/29 10:03:46;;;;;;;14.13;5.85;;;;;;;21.39;25.85;97864.41;2261492;78;21360;-79
2021/04/29 10:06:47;;;;;;;19.40;6.10;;;;;;;21.45;26.21;97871.62;2261751;78;21156;-81
2021/04/29 10:09:48;;;;;;;49.45;7.33;;;;;;;21.75;26.12;97869.78;2261685;78;21178;-79
2021/04/29 10:12:49;;;;;;;11.63;5.60;;;;;;;21.75;25.82;97850.72;2258857;78;21097;-81
2021/04/29 10:15:52;;;;;;;13.05;5.03;;;;;;;21.52;26.54;97862.42;2261625;78;21099;-82
2021/04/29 10:18:53;;;;;;;8.88;5.78;;;;;;;21.77;25.81;97863.93;2257591;79;21079;-79
2021/04/29 10:21:54;;;;;;;29.60;7.25;;;;;;;21.84;26.25;97854.73;2260730;78;21106;-82
2021/04/29 10:24:56;;;;;;;12.50;6.10;;;;;;;21.81;25.73;97862.38;2258851;78;21086;-78
2021/04/29 10:27:57;;;;;;;8.38;5.80;;;;;;;21.71;27.75;97854.94;2261377;78;21134;-81
2021/04/29 10:30:58;;;;;;;15.60;6.35;;;;;;;21.80;27.57;97848.70;2261475;78;21094;-81
2021/04/29 10:33:59;;;;;;;6.35;5.72;;;;;;;21.91;27.15;97849.03;2261535;79;21066;-81
2021/04/29 10:37:00;;;;;;;13.83;7.00;;;;;;;22.06;27.99;97845.26;2261424;78;21113;-81
2021/04/29 10:40:02;;;;;;;13.68;7.05;;;;;;;22.36;28.21;97843.70;2259891;78;21067;-79
2021/04/29 10:43:03;;;;;;;8.53;6.28;;;;;;;22.52;29.01;97837.98;2260878;78;21098;-79
2021/04/29 10:46:05;;;;;;;13.98;6.22;;;;;;;22.58;28.11;97836.83;2261394;78;21090;-80
2021/04/29 10:49:06;;;;;;;11.68;7.30;;;;;;;22.66;27.76;97835.95;2261653;78;21150;-79
2021/04/29 10:52:09;;;;;;;11.22;6.78;;;;;;;22.61;28.27;97831.34;2263914;78;21137;-80
2021/04/29 10:55:10;;;;;;;7.35;6.65;;;;;;;22.59;29.12;97833.23;2279475;78;21114;-79
2021/04/29 10:58:12;;;;;;;10.18;6.87;;;;;;;22.82;28.95;97830.24;2278332;77;21141;-82
2021/04/29 11:01:13;;;;;;;13.28;7.62;;;;;;;23.00;28.44;97839.51;2249163;77;21067;-82
2021/04/29 11:04:14;;;;;;;10.50;7.17;;;;;;;22.93;28.50;97834.13;2246923;79;21233;-81
2021/04/29 11:07:17;;;;;;;14.53;6.65;;;;;;;22.81;28.75;97839.16;2247109;79;21142;-80
2021/04/29 11:10:18;;;;;;;13.53;7.12;;;;;;;22.81;29.41;97825.00;2246911;79;21103;-80
2021/04/29 11:13:19;;;;;;;24.05;8.33;;;;;;;22.92;28.80;97834.59;2246530;79;21504;-79
2021/04/29 11:16:20;;;;;;;116.65;99.35;;;;;;;22.86;28.64;97831.80;2247007;79;21135;-82
2021/04/29 11:19:21;;;;;;;14.78;8.55;;;;;;;22.99;28.97;97829.80;2246827;79;21090;-79
2021/04/29 11:22:22;;;;;;;24.20;8.33;;;;;;;23.11;28.68;97839.31;2246647;79;21095;-81
2021/04/29 11:25:23;;;;;;;13.90;6.92;;;;;;;22.96;28.27;97832.62;2246855;79;21114;-79
2021/04/29 11:28:24;;;;;;;10.78;6.22;;;;;;;22.90;28.47;97832.96;2246736;79;21153;-81
2021/04/29 11:31:26;;;;;;;13.25;7.22;;;;;;;22.79;28.27;97830.84;2246746;79;21181;-79
2021/04/29 11:34:27;;;;;;;12.47;6.03;;;;;;;22.74;28.42;97828.90;2246669;79;21110;-82
2021/04/29 11:37:28;;;;;;;8.90;6.28;;;;;;;22.83;27.83;97827.11;2246786;79;21373;-80
2021/04/29 11:40:29;;;;;;;6.78;5.65;;;;;;;22.75;27.87;97822.64;2246915;79;21094;-81
2021/04/29 11:43:30;;;;;;;10.95;6.03;;;;;;;22.86;28.05;97825.14;2246731;79;21103;-80
2021/04/29 11:46:31;;;;;;;12.80;5.55;;;;;;;22.99;27.69;97817.36;2246600;79;21087;-80
2021/04/29 11:49:32;;;;;;;238.72;22.42;;;;;;;22.91;27.90;97826.70;2246698;79;21115;-79
2021/04/29 11:52:33;;;;;;;45.60;7.03;;;;;;;23.15;27.96;97825.36;2247001;79;21118;-81
2021/04/29 11:55:34;;;;;;;20.82;6.42;;;;;;;23.29;27.82;97829.45;2246889;79;21404;-80
2021/04/29 11:58:36;;;;;;;50.70;8.10;;;;;;;23.20;27.87;97833.48;2246896;79;21114;-81
2021/04/29 12:01:37;;;;;;;13.65;4.62;;;;;;;23.33;27.72;97831.00;2246950;79;21226;-80
2021/04/29 12:04:39;;;;;;;17.27;5.30;;;;;;;23.39;27.01;97831.13;2247162;79;21222;-80
2021/04/29 12:07:40;;;;;;;17.75;4.47;;;;;;;23.27;26.91;97834.00;2246916;79;21143;-78
2021/04/29 12:10:42;;;;;;;19.10;5.45;;;;;;;23.25;27.01;97833.23;2247443;79;21075;-80
2021/04/29 12:13:43;;;;;;;10.15;4.80;;;;;;;23.34;26.86;97833.19;2248126;79;21115;-80
2021/04/29 12:16:44;;;;;;;23.75;17.30;;;;;;;23.16;26.71;97831.94;2248301;79;21075;-80
2021/04/29 12:19:47;;;;;;;14.03;8.03;;;;;;;23.04;27.47;97826.42;2247706;79;21072;-79
2021/04/29 12:22:49;;;;;;;10.93;6.30;;;;;;;23.07;27.76;97824.92;2246937;79;21989;-79
2021/04/29 12:25:50;;;;;;;11.63;5.12;;;;;;;23.16;27.98;97821.28;2247681;79;21134;-79
2021/04/29 12:28:51;;;;;;;24.12;6.10;;;;;;;23.18;27.82;97819.88;2247242;79;21134;-82
2021/04/29 12:31:52;;;;;;;10.72;5.67;;;;;;;23.21;28.02;97821.03;2247562;79;21125;-81
2021/04/29 12:34:53;;;;;;;9.83;5.37;;;;;;;23.38;27.99;97820.09;2247514;79;21221;-80
2021/04/29 12:37:54;;;;;;;14.15;6.65;;;;;;;23.32;28.03;97817.30;2247425;79;21411;-79
2021/04/29 12:40:55;;;;;;;8.73;6.03;;;;;;;23.14;27.83;97823.64;2247008;79;21122;-80
2021/04/29 12:43:56;;;;;;;7.65;5.55;;;;;;;22.84;28.50;97819.05;2247923;79;21221;-79
2021/04/29 12:46:57;;;;;;;18.40;6.22;;;;;;;22.79;28.93;97811.75;2247273;79;21126;-79
2021/04/29 12:49:59;;;;;;;13.05;6.03;;;;;;;23.04;29.42;97811.78;2247337;79;21261;-79
2021/04/29 12:53:01;;;;;;;26.42;6.78;;;;;;;23.40;29.35;97805.75;2278828;78;21113;-78
2021/04/29 12:56:02;;;;;;;10.75;6.50;;;;;;;23.65;29.10;97805.75;2260940;78;21496;-77
2021/04/29 12:59:03;;;;;;;12.45;6.37;;;;;;;23.79;29.18;97799.16;2260642;78;21527;-78
2021/04/29 13:02:05;;;;;;;29.18;7.10;;;;;;;23.50;29.43;97805.65;2261171;78;21090;-80
2021/04/29 13:05:06;;;;;;;10.80;6.83;;;;;;;23.40;30.27;97801.75;2250478;79;21106;-80
2021/04/29 13:08:07;;;;;;;17.75;8.18;;;;;;;23.57;30.04;97795.53;2262187;78;21142;-78
2021/04/29 13:11:08;;;;;;;12.13;7.17;;;;;;;23.55;30.10;97793.91;2261981;78;21088;-81
2021/04/29 13:14:09;;;;;;;12.37;7.12;;;;;;;23.51;30.26;97797.19;2262092;78;21092;-79
2021/04/29 13:17:10;;;;;;;13.70;7.20;;;;;;;23.59;30.55;97793.64;2261790;78;21094;-79
2021/04/29 13:20:11;;;;;;;20.05;8.65;;;;;;;23.69;30.63;97792.17;2262023;78;21377;-80
2021/04/29 13:23:12;;;;;;;11.08;8.00;;;;;;;23.81;30.24;97786.60;2262116;78;21227;-80
2021/04/29 13:26:13;;;;;;;12.25;8.38;;;;;;;23.79;30.45;97800.48;2262069;78;21122;-81
2021/04/29 13:29:14;;;;;;;15.40;8.63;;;;;;;23.51;30.90;97804.70;2262100;78;21134;-82
2021/04/29 13:32:16;;;;;;;15.55;8.85;;;;;;;23.50;31.16;97796.80;2262342;78;21106;-81
2021/04/29 13:35:18;;;;;;;13.25;9.70;;;;;;;23.27;31.52;97794.06;2262072;78;21090;-79
2021/04/29 13:38:19;;;;;;;13.62;9.88;;;;;;;22.98;32.00;97795.68;2261849;78;21240;-80
2021/04/29 13:41:20;;;;;;;13.62;8.85;;;;;;;22.95;32.46;97788.34;2261515;78;21368;-79
2021/04/29 13:44:21;;;;;;;15.25;8.20;;;;;;;23.16;32.35;97778.70;2261741;78;21106;-78
2021/04/29 13:47:22;;;;;;;12.67;7.57;;;;;;;23.43;32.12;97777.64;2262107;78;21078;-81
2021/04/29 13:50:24;;;;;;;10.18;7.45;;;;;;;23.70;31.51;97778.38;2261860;78;21193;-82
2021/04/29 13:53:25;;;;;;;23.15;7.25;;;;;;;23.54;31.65;97772.18;2257042;79;21097;-82
2021/04/29 13:56:26;;;;;;;15.50;7.80;;;;;;;23.62;31.34;97768.16;2260825;78;21237;-81
2021/04/29 13:59:27;;;;;;;19.98;8.38;;;;;;;23.51;31.66;97763.42;2260540;78;21443;-80
2021/04/29 14:02:29;;;;;;;23.87;8.33;;;;;;;23.37;32.15;97781.09;2260543;78;21125;-80
2021/04/29 14:05:30;;;;;;;16.50;7.53;;;;;;;23.25;32.52;97771.14;2260350;78;21070;-79